Airfield :
LOGIN :

Register | Disclaimer

   EN    FR    IT 

 










Legend :    VFR   Marginal VFR   IFR   Intensive IFR   Very Intensive IFR
Visi :
Ceiling :
>= 8 km
>= 3000ft
5 to 8 km
1000 to 3000 ft
1500m to 5 km
500 to 1000 ft
800 to 1500m
200 to 500 ft
< 800m
< 200 ft
Symbols :   Thunderstorms  Fog  Heavy snow  Heavy precipitations  Wind > 20 kt
SIGMETs :     Misc.  Thunderstorms  Icing  Turbulence  Mountain Waves  Volcanic Ashes






- Airport Elevation : 202 ft
- IATA code : LGW


EGKK - London Gatwick

CURRENT METAR :
  • 311820Z 05017KT CAVOK 18/05 Q1022

EXPIRED METARs :
  • 311750Z 06016KT CAVOK 19/05 Q1022
  • 311720Z 06015KT CAVOK 19/05 Q1022
  • 311650Z 05017KT CAVOK 20/05 Q1022
  • 311620Z 05016KT CAVOK 21/05 Q1022
  • 311550Z 07015KT CAVOK 21/05 Q1022

TAF TAF EGKK
Valid from the 31 at 18:00 until the 02 at 00:00 UTC


311659Z 3118/0124 06012KT CAVOK



MET'MAP, your aeronautical weather chart ! - Copyright ORBIFLY December 2007 - Disclaimer

ORBIFLY MET'MAP TEAM :

Programming & Development : Alexandra Zaïnal
Concept & original design : Baudouin d'Aumeries
Assistance for programming : Marc-Olivier Méhu
Technical & hardware support : Manuel Goepfert

Contact : metmap@orbifly.com




SOURCES & CREDITS :

   NOAA